sensor_id;sensor_type;location;lat;lon;timestamp;P1;durP1;ratioP1;P2;durP2;ratioP2
59512;SDS011;45330;51.634;5.562;2022-12-18T00:01:05;71.03;;;31.77;;
59512;SDS011;45330;51.634;5.562;2022-12-18T00:03:38;69.05;;;32.10;;
59512;SDS011;45330;51.634;5.562;2022-12-18T00:06:03;73.95;;;31.30;;
59512;SDS011;45330;51.634;5.562;2022-12-18T00:08:29;80.22;;;32.42;;
59512;SDS011;45330;51.634;5.562;2022-12-18T00:10:54;79.28;;;33.13;;
59512;SDS011;45330;51.634;5.562;2022-12-18T00:13:20;73.93;;;32.53;;
59512;SDS011;45330;51.634;5.562;2022-12-18T00:15:45;77.75;;;31.90;;
59512;SDS011;45330;51.634;5.562;2022-12-18T00:18:10;77.30;;;34.20;;
59512;SDS011;45330;51.634;5.562;2022-12-18T00:20:36;77.50;;;33.17;;
59512;SDS011;45330;51.634;5.562;2022-12-18T00:23:03;72.78;;;31.23;;
59512;SDS011;45330;51.634;5.562;2022-12-18T00:25:28;74.03;;;32.55;;
59512;SDS011;45330;51.634;5.562;2022-12-18T00:27:53;78.47;;;33.53;;
59512;SDS011;45330;51.634;5.562;2022-12-18T00:30:19;77.07;;;32.65;;
59512;SDS011;45330;51.634;5.562;2022-12-18T00:32:44;76.15;;;35.33;;
59512;SDS011;45330;51.634;5.562;2022-12-18T00:35:10;84.40;;;33.92;;
59512;SDS011;45330;51.634;5.562;2022-12-18T00:37:35;84.03;;;34.33;;
59512;SDS011;45330;51.634;5.562;2022-12-18T00:40:01;73.13;;;32.50;;
59512;SDS011;45330;51.634;5.562;2022-12-18T00:42:26;73.43;;;33.55;;
59512;SDS011;45330;51.634;5.562;2022-12-18T00:45:10;65.53;;;31.92;;
59512;SDS011;45330;51.634;5.562;2022-12-18T00:47:36;75.15;;;29.88;;
59512;SDS011;45330;51.634;5.562;2022-12-18T00:50:01;73.03;;;31.85;;
59512;SDS011;45330;51.634;5.562;2022-12-18T00:52:27;74.45;;;32.28;;
59512;SDS011;45330;51.634;5.562;2022-12-18T00:54:52;69.95;;;32.22;;
59512;SDS011;45330;51.634;5.562;2022-12-18T00:57:17;70.13;;;31.58;;
59512;SDS011;45330;51.634;5.562;2022-12-18T00:59:43;67.88;;;29.90;;
59512;SDS011;45330;51.634;5.562;2022-12-18T01:02:08;66.03;;;29.83;;
59512;SDS011;45330;51.634;5.562;2022-12-18T01:04:33;65.97;;;29.00;;
59512;SDS011;45330;51.634;5.562;2022-12-18T01:06:59;67.57;;;32.35;;
59512;SDS011;45330;51.634;5.562;2022-12-18T01:09:24;59.33;;;27.50;;
59512;SDS011;45330;51.634;5.562;2022-12-18T01:11:50;58.72;;;28.80;;
59512;SDS011;45330;51.634;5.562;2022-12-18T01:14:15;59.28;;;26.23;;
59512;SDS011;45330;51.634;5.562;2022-12-18T01:16:40;59.03;;;29.45;;
59512;SDS011;45330;51.634;5.562;2022-12-18T01:19:06;57.95;;;26.15;;
59512;SDS011;45330;51.634;5.562;2022-12-18T01:21:31;60.60;;;27.92;;
59512;SDS011;45330;51.634;5.562;2022-12-18T01:23:57;56.05;;;26.40;;
59512;SDS011;45330;51.634;5.562;2022-12-18T01:26:22;58.53;;;27.10;;
59512;SDS011;45330;51.634;5.562;2022-12-18T01:28:49;58.63;;;27.15;;
59512;SDS011;45330;51.634;5.562;2022-12-18T01:31:19;56.53;;;26.02;;
59512;SDS011;45330;51.634;5.562;2022-12-18T01:33:45;59.33;;;27.13;;
59512;SDS011;45330;51.634;5.562;2022-12-18T01:36:15;56.30;;;27.75;;
59512;SDS011;45330;51.634;5.562;2022-12-18T01:38:41;55.05;;;27.38;;
59512;SDS011;45330;51.634;5.562;2022-12-18T01:41:08;52.78;;;25.70;;
59512;SDS011;45330;51.634;5.562;2022-12-18T01:43:40;52.13;;;23.83;;
59512;SDS011;45330;51.634;5.562;2022-12-18T01:46:17;55.53;;;26.15;;
59512;SDS011;45330;51.634;5.562;2022-12-18T01:48:44;52.00;;;24.60;;
59512;SDS011;45330;51.634;5.562;2022-12-18T01:51:13;50.63;;;24.15;;
59512;SDS011;45330;51.634;5.562;2022-12-18T01:53:39;52.78;;;24.15;;
59512;SDS011;45330;51.634;5.562;2022-12-18T01:56:07;51.33;;;24.08;;
59512;SDS011;45330;51.634;5.562;2022-12-18T02:01:06;48.53;;;23.38;;
59512;SDS011;45330;51.634;5.562;2022-12-18T02:03:32;54.75;;;24.48;;
59512;SDS011;45330;51.634;5.562;2022-12-18T02:06:15;51.50;;;23.92;;
59512;SDS011;45330;51.634;5.562;2022-12-18T02:09:02;48.70;;;23.67;;
59512;SDS011;45330;51.634;5.562;2022-12-18T02:11:42;48.50;;;24.05;;
59512;SDS011;45330;51.634;5.562;2022-12-18T02:14:31;47.60;;;23.35;;
59512;SDS011;45330;51.634;5.562;2022-12-18T02:17:06;48.45;;;22.98;;
59512;SDS011;45330;51.634;5.562;2022-12-18T02:19:44;49.35;;;23.83;;
59512;SDS011;45330;51.634;5.562;2022-12-18T02:22:25;50.83;;;23.98;;
59512;SDS011;45330;51.634;5.562;2022-12-18T02:27:36;51.47;;;23.80;;
59512;SDS011;45330;51.634;5.562;2022-12-18T02:30:04;49.10;;;23.42;;
59512;SDS011;45330;51.634;5.562;2022-12-18T02:32:31;48.03;;;24.05;;
59512;SDS011;45330;51.634;5.562;2022-12-18T02:35:03;46.63;;;23.45;;
59512;SDS011;45330;51.634;5.562;2022-12-18T02:37:31;47.08;;;21.30;;
59512;SDS011;45330;51.634;5.562;2022-12-18T02:39:58;45.47;;;22.83;;
59512;SDS011;45330;51.634;5.562;2022-12-18T02:42:24;49.13;;;22.10;;
59512;SDS011;45330;51.634;5.562;2022-12-18T02:44:51;45.35;;;20.67;;
59512;SDS011;45330;51.634;5.562;2022-12-18T02:47:18;47.05;;;22.75;;
59512;SDS011;45330;51.634;5.562;2022-12-18T02:52:35;44.67;;;23.02;;
59512;SDS011;45330;51.634;5.562;2022-12-18T02:57:46;44.45;;;21.05;;
59512;SDS011;45330;51.634;5.562;2022-12-18T03:00:37;41.05;;;20.50;;
59512;SDS011;45330;51.634;5.562;2022-12-18T03:03:07;43.25;;;20.33;;
59512;SDS011;45330;51.634;5.562;2022-12-18T03:05:37;45.65;;;22.80;;
59512;SDS011;45330;51.634;5.562;2022-12-18T03:08:41;42.75;;;20.63;;
59512;SDS011;45330;51.634;5.562;2022-12-18T03:11:09;41.60;;;19.73;;
59512;SDS011;45330;51.634;5.562;2022-12-18T03:13:37;46.15;;;21.50;;
59512;SDS011;45330;51.634;5.562;2022-12-18T03:16:09;42.53;;;19.58;;
59512;SDS011;45330;51.634;5.562;2022-12-18T03:18:42;40.17;;;20.02;;
59512;SDS011;45330;51.634;5.562;2022-12-18T03:21:09;39.72;;;19.58;;
59512;SDS011;45330;51.634;5.562;2022-12-18T03:23:41;41.78;;;21.05;;
59512;SDS011;45330;51.634;5.562;2022-12-18T03:26:13;43.28;;;24.67;;
59512;SDS011;45330;51.634;5.562;2022-12-18T03:28:43;47.90;;;25.00;;
59512;SDS011;45330;51.634;5.562;2022-12-18T03:31:16;49.85;;;27.60;;
59512;SDS011;45330;51.634;5.562;2022-12-18T03:33:52;51.42;;;27.65;;
59512;SDS011;45330;51.634;5.562;2022-12-18T03:36:19;53.53;;;29.38;;
59512;SDS011;45330;51.634;5.562;2022-12-18T03:38:45;53.35;;;32.33;;
59512;SDS011;45330;51.634;5.562;2022-12-18T03:46:43;53.72;;;34.47;;
59512;SDS011;45330;51.634;5.562;2022-12-18T03:52:11;54.22;;;33.55;;
59512;SDS011;45330;51.634;5.562;2022-12-18T03:54:49;58.15;;;38.03;;
59512;SDS011;45330;51.634;5.562;2022-12-18T03:57:18;62.13;;;35.80;;
59512;SDS011;45330;51.634;5.562;2022-12-18T03:59:46;57.20;;;34.90;;
59512;SDS011;45330;51.634;5.562;2022-12-18T04:02:15;57.70;;;34.88;;
59512;SDS011;45330;51.634;5.562;2022-12-18T04:04:42;60.22;;;35.15;;
59512;SDS011;45330;51.634;5.562;2022-12-18T04:07:09;61.45;;;38.50;;
59512;SDS011;45330;51.634;5.562;2022-12-18T04:09:35;57.08;;;36.55;;
59512;SDS011;45330;51.634;5.562;2022-12-18T04:12:03;54.90;;;34.85;;
59512;SDS011;45330;51.634;5.562;2022-12-18T04:14:29;58.25;;;35.28;;
59512;SDS011;45330;51.634;5.562;2022-12-18T04:16:54;57.78;;;35.53;;
59512;SDS011;45330;51.634;5.562;2022-12-18T04:19:19;55.78;;;34.70;;
59512;SDS011;45330;51.634;5.562;2022-12-18T04:21:45;57.38;;;33.00;;
59512;SDS011;45330;51.634;5.562;2022-12-18T04:24:10;58.45;;;34.80;;
59512;SDS011;45330;51.634;5.562;2022-12-18T04:26:35;54.40;;;31.25;;
59512;SDS011;45330;51.634;5.562;2022-12-18T04:29:01;49.88;;;28.83;;
59512;SDS011;45330;51.634;5.562;2022-12-18T04:31:26;52.85;;;29.42;;
59512;SDS011;45330;51.634;5.562;2022-12-18T04:33:52;51.72;;;26.85;;
59512;SDS011;45330;51.634;5.562;2022-12-18T04:36:17;46.33;;;25.35;;
59512;SDS011;45330;51.634;5.562;2022-12-18T04:38:43;42.10;;;24.77;;
59512;SDS011;45330;51.634;5.562;2022-12-18T04:41:08;40.60;;;22.10;;
59512;SDS011;45330;51.634;5.562;2022-12-18T04:43:33;39.58;;;19.77;;
59512;SDS011;45330;51.634;5.562;2022-12-18T04:46:03;39.10;;;19.52;;
59512;SDS011;45330;51.634;5.562;2022-12-18T04:48:29;39.33;;;19.75;;
59512;SDS011;45330;51.634;5.562;2022-12-18T04:50:55;35.25;;;17.65;;
59512;SDS011;45330;51.634;5.562;2022-12-18T04:53:20;36.35;;;17.90;;
59512;SDS011;45330;51.634;5.562;2022-12-18T04:55:45;36.83;;;16.92;;
59512;SDS011;45330;51.634;5.562;2022-12-18T04:58:10;37.65;;;18.45;;
59512;SDS011;45330;51.634;5.562;2022-12-18T05:00:36;36.90;;;17.13;;
59512;SDS011;45330;51.634;5.562;2022-12-18T05:03:01;33.75;;;15.63;;
59512;SDS011;45330;51.634;5.562;2022-12-18T05:05:27;33.90;;;15.65;;
59512;SDS011;45330;51.634;5.562;2022-12-18T05:07:52;35.17;;;17.67;;
59512;SDS011;45330;51.634;5.562;2022-12-18T05:10:18;34.65;;;15.60;;
59512;SDS011;45330;51.634;5.562;2022-12-18T05:12:43;33.70;;;16.02;;
59512;SDS011;45330;51.634;5.562;2022-12-18T05:15:24;31.73;;;16.00;;
59512;SDS011;45330;51.634;5.562;2022-12-18T05:17:51;32.97;;;15.63;;
59512;SDS011;45330;51.634;5.562;2022-12-18T05:20:17;32.72;;;17.05;;
59512;SDS011;45330;51.634;5.562;2022-12-18T05:22:43;34.53;;;16.42;;
59512;SDS011;45330;51.634;5.562;2022-12-18T05:25:08;36.17;;;16.77;;
59512;SDS011;45330;51.634;5.562;2022-12-18T05:27:34;32.65;;;15.60;;
59512;SDS011;45330;51.634;5.562;2022-12-18T05:29:59;37.47;;;17.23;;
59512;SDS011;45330;51.634;5.562;2022-12-18T05:32:25;34.60;;;15.73;;
59512;SDS011;45330;51.634;5.562;2022-12-18T05:34:50;34.63;;;15.55;;
59512;SDS011;45330;51.634;5.562;2022-12-18T05:37:15;33.85;;;16.45;;
59512;SDS011;45330;51.634;5.562;2022-12-18T05:39:42;33.42;;;15.38;;
59512;SDS011;45330;51.634;5.562;2022-12-18T05:42:09;35.00;;;17.33;;
59512;SDS011;45330;51.634;5.562;2022-12-18T05:44:34;33.63;;;15.93;;
59512;SDS011;45330;51.634;5.562;2022-12-18T05:47:00;32.90;;;15.27;;
59512;SDS011;45330;51.634;5.562;2022-12-18T05:49:25;36.90;;;17.10;;
59512;SDS011;45330;51.634;5.562;2022-12-18T05:51:51;30.15;;;15.15;;
59512;SDS011;45330;51.634;5.562;2022-12-18T05:54:16;33.00;;;16.10;;
59512;SDS011;45330;51.634;5.562;2022-12-18T05:56:41;34.83;;;17.50;;
59512;SDS011;45330;51.634;5.562;2022-12-18T05:59:07;34.58;;;18.65;;
59512;SDS011;45330;51.634;5.562;2022-12-18T06:01:32;40.40;;;20.17;;
59512;SDS011;45330;51.634;5.562;2022-12-18T06:03:57;40.10;;;21.48;;
59512;SDS011;45330;51.634;5.562;2022-12-18T06:06:23;39.45;;;20.83;;
59512;SDS011;45330;51.634;5.562;2022-12-18T06:08:51;42.65;;;23.83;;
59512;SDS011;45330;51.634;5.562;2022-12-18T06:11:18;48.53;;;29.15;;
59512;SDS011;45330;51.634;5.562;2022-12-18T06:13:45;55.58;;;35.08;;
59512;SDS011;45330;51.634;5.562;2022-12-18T06:16:11;55.45;;;32.25;;
59512;SDS011;45330;51.634;5.562;2022-12-18T06:18:37;56.00;;;34.42;;
59512;SDS011;45330;51.634;5.562;2022-12-18T06:21:02;54.20;;;34.00;;
59512;SDS011;45330;51.634;5.562;2022-12-18T06:23:28;55.22;;;34.58;;
59512;SDS011;45330;51.634;5.562;2022-12-18T06:25:53;54.70;;;33.67;;
59512;SDS011;45330;51.634;5.562;2022-12-18T06:28:19;55.08;;;33.17;;
59512;SDS011;45330;51.634;5.562;2022-12-18T06:30:45;55.97;;;34.35;;
59512;SDS011;45330;51.634;5.562;2022-12-18T06:33:14;56.03;;;33.67;;
59512;SDS011;45330;51.634;5.562;2022-12-18T06:35:40;54.78;;;34.58;;
59512;SDS011;45330;51.634;5.562;2022-12-18T06:38:06;62.83;;;39.80;;
59512;SDS011;45330;51.634;5.562;2022-12-18T06:40:31;61.08;;;37.80;;
59512;SDS011;45330;51.634;5.562;2022-12-18T06:42:57;62.63;;;40.13;;
59512;SDS011;45330;51.634;5.562;2022-12-18T06:45:23;58.90;;;37.78;;
59512;SDS011;45330;51.634;5.562;2022-12-18T06:47:49;63.00;;;39.00;;
59512;SDS011;45330;51.634;5.562;2022-12-18T06:50:14;60.55;;;39.38;;
59512;SDS011;45330;51.634;5.562;2022-12-18T06:52:40;59.15;;;38.92;;
59512;SDS011;45330;51.634;5.562;2022-12-18T06:55:08;57.95;;;36.63;;
59512;SDS011;45330;51.634;5.562;2022-12-18T06:57:34;54.28;;;34.00;;
59512;SDS011;45330;51.634;5.562;2022-12-18T06:59:59;57.08;;;32.65;;
59512;SDS011;45330;51.634;5.562;2022-12-18T07:02:25;52.63;;;31.15;;
59512;SDS011;45330;51.634;5.562;2022-12-18T07:04:50;49.30;;;30.40;;
59512;SDS011;45330;51.634;5.562;2022-12-18T07:07:15;45.60;;;28.35;;
59512;SDS011;45330;51.634;5.562;2022-12-18T07:09:41;45.47;;;26.02;;
59512;SDS011;45330;51.634;5.562;2022-12-18T07:12:06;39.10;;;23.15;;
59512;SDS011;45330;51.634;5.562;2022-12-18T07:14:32;42.90;;;22.90;;
59512;SDS011;45330;51.634;5.562;2022-12-18T07:16:58;41.22;;;21.30;;
59512;SDS011;45330;51.634;5.562;2022-12-18T07:19:23;35.88;;;20.55;;
59512;SDS011;45330;51.634;5.562;2022-12-18T07:21:49;36.25;;;19.52;;
59512;SDS011;45330;51.634;5.562;2022-12-18T07:24:15;37.65;;;19.17;;
59512;SDS011;45330;51.634;5.562;2022-12-18T07:26:40;36.75;;;18.83;;
59512;SDS011;45330;51.634;5.562;2022-12-18T07:29:06;36.28;;;18.15;;
59512;SDS011;45330;51.634;5.562;2022-12-18T07:31:31;36.53;;;18.40;;
59512;SDS011;45330;51.634;5.562;2022-12-18T07:33:56;35.90;;;17.60;;
59512;SDS011;45330;51.634;5.562;2022-12-18T07:36:22;36.13;;;17.05;;
59512;SDS011;45330;51.634;5.562;2022-12-18T07:38:47;37.08;;;18.55;;
59512;SDS011;45330;51.634;5.562;2022-12-18T07:41:14;35.33;;;17.08;;
59512;SDS011;45330;51.634;5.562;2022-12-18T07:43:40;37.30;;;17.52;;
59512;SDS011;45330;51.634;5.562;2022-12-18T07:46:07;35.78;;;16.63;;
59512;SDS011;45330;51.634;5.562;2022-12-18T07:48:33;36.30;;;17.42;;
59512;SDS011;45330;51.634;5.562;2022-12-18T07:50:59;36.33;;;16.77;;
59512;SDS011;45330;51.634;5.562;2022-12-18T07:53:29;36.00;;;16.80;;
59512;SDS011;45330;51.634;5.562;2022-12-18T07:55:56;35.55;;;17.38;;
59512;SDS011;45330;51.634;5.562;2022-12-18T07:58:22;35.95;;;17.88;;
59512;SDS011;45330;51.634;5.562;2022-12-18T08:00:47;35.22;;;17.17;;
59512;SDS011;45330;51.634;5.562;2022-12-18T08:03:12;36.15;;;18.08;;
59512;SDS011;45330;51.634;5.562;2022-12-18T08:05:38;35.80;;;17.92;;
59512;SDS011;45330;51.634;5.562;2022-12-18T08:08:03;36.78;;;18.15;;
59512;SDS011;45330;51.634;5.562;2022-12-18T08:10:29;37.15;;;18.63;;
59512;SDS011;45330;51.634;5.562;2022-12-18T08:12:54;35.85;;;17.58;;
59512;SDS011;45330;51.634;5.562;2022-12-18T08:15:19;35.80;;;16.83;;
59512;SDS011;45330;51.634;5.562;2022-12-18T08:17:45;38.03;;;17.92;;
59512;SDS011;45330;51.634;5.562;2022-12-18T08:20:10;34.80;;;17.15;;
59512;SDS011;45330;51.634;5.562;2022-12-18T08:22:37;35.47;;;17.70;;
59512;SDS011;45330;51.634;5.562;2022-12-18T08:25:04;36.85;;;16.77;;
59512;SDS011;45330;51.634;5.562;2022-12-18T08:27:29;35.42;;;16.98;;
59512;SDS011;45330;51.634;5.562;2022-12-18T08:29:55;35.42;;;17.33;;
59512;SDS011;45330;51.634;5.562;2022-12-18T08:32:21;34.22;;;17.05;;
59512;SDS011;45330;51.634;5.562;2022-12-18T08:34:46;34.65;;;17.52;;
59512;SDS011;45330;51.634;5.562;2022-12-18T08:37:11;35.08;;;16.27;;
59512;SDS011;45330;51.634;5.562;2022-12-18T08:39:37;35.42;;;16.13;;
59512;SDS011;45330;51.634;5.562;2022-12-18T08:42:02;32.63;;;15.57;;
59512;SDS011;45330;51.634;5.562;2022-12-18T08:44:46;33.97;;;16.67;;
59512;SDS011;45330;51.634;5.562;2022-12-18T08:47:12;32.97;;;15.35;;
59512;SDS011;45330;51.634;5.562;2022-12-18T08:49:37;35.97;;;16.65;;
59512;SDS011;45330;51.634;5.562;2022-12-18T08:52:02;33.00;;;16.15;;
59512;SDS011;45330;51.634;5.562;2022-12-18T08:54:28;31.55;;;16.42;;
59512;SDS011;45330;51.634;5.562;2022-12-18T08:56:53;33.15;;;15.70;;
59512;SDS011;45330;51.634;5.562;2022-12-18T08:59:19;33.78;;;17.10;;
59512;SDS011;45330;51.634;5.562;2022-12-18T09:01:45;34.75;;;17.15;;
59512;SDS011;45330;51.634;5.562;2022-12-18T09:04:11;38.15;;;17.98;;
59512;SDS011;45330;51.634;5.562;2022-12-18T09:06:37;35.72;;;16.85;;
59512;SDS011;45330;51.634;5.562;2022-12-18T09:09:03;34.10;;;17.05;;
59512;SDS011;45330;51.634;5.562;2022-12-18T09:11:30;34.25;;;17.65;;
59512;SDS011;45330;51.634;5.562;2022-12-18T09:13:56;36.13;;;17.13;;
59512;SDS011;45330;51.634;5.562;2022-12-18T09:16:24;34.85;;;16.98;;
59512;SDS011;45330;51.634;5.562;2022-12-18T09:18:50;35.38;;;17.73;;
59512;SDS011;45330;51.634;5.562;2022-12-18T09:21:19;36.65;;;17.25;;
59512;SDS011;45330;51.634;5.562;2022-12-18T09:23:49;34.17;;;16.13;;
59512;SDS011;45330;51.634;5.562;2022-12-18T09:26:15;33.15;;;16.73;;
59512;SDS011;45330;51.634;5.562;2022-12-18T09:28:41;34.13;;;16.63;;
59512;SDS011;45330;51.634;5.562;2022-12-18T09:31:07;33.10;;;17.52;;
59512;SDS011;45330;51.634;5.562;2022-12-18T09:33:34;34.38;;;17.00;;
59512;SDS011;45330;51.634;5.562;2022-12-18T09:36:01;33.20;;;17.13;;
59512;SDS011;45330;51.634;5.562;2022-12-18T09:38:30;33.65;;;16.05;;
59512;SDS011;45330;51.634;5.562;2022-12-18T09:41:00;33.95;;;16.40;;
59512;SDS011;45330;51.634;5.562;2022-12-18T09:43:43;34.20;;;17.30;;
59512;SDS011;45330;51.634;5.562;2022-12-18T09:46:17;35.63;;;16.85;;
59512;SDS011;45330;51.634;5.562;2022-12-18T09:49:02;33.42;;;16.25;;
59512;SDS011;45330;51.634;5.562;2022-12-18T09:51:39;31.80;;;16.17;;
59512;SDS011;45330;51.634;5.562;2022-12-18T09:54:22;32.75;;;15.05;;
59512;SDS011;45330;51.634;5.562;2022-12-18T09:56:51;35.83;;;17.08;;
59512;SDS011;45330;51.634;5.562;2022-12-18T09:59:27;32.15;;;16.30;;
59512;SDS011;45330;51.634;5.562;2022-12-18T10:01:58;31.63;;;16.95;;
59512;SDS011;45330;51.634;5.562;2022-12-18T10:04:24;33.30;;;17.58;;
59512;SDS011;45330;51.634;5.562;2022-12-18T10:06:58;32.33;;;15.82;;
59512;SDS011;45330;51.634;5.562;2022-12-18T10:09:43;37.35;;;17.33;;
59512;SDS011;45330;51.634;5.562;2022-12-18T10:12:32;34.30;;;17.17;;
59512;SDS011;45330;51.634;5.562;2022-12-18T10:15:08;29.27;;;14.95;;
59512;SDS011;45330;51.634;5.562;2022-12-18T10:17:55;32.35;;;16.52;;
59512;SDS011;45330;51.634;5.562;2022-12-18T10:20:37;32.83;;;16.88;;
59512;SDS011;45330;51.634;5.562;2022-12-18T10:23:24;32.55;;;15.25;;
59512;SDS011;45330;51.634;5.562;2022-12-18T10:28:31;32.22;;;16.50;;
59512;SDS011;45330;51.634;5.562;2022-12-18T10:31:01;27.97;;;12.67;;
59512;SDS011;45330;51.634;5.562;2022-12-18T10:33:30;31.17;;;15.70;;
59512;SDS011;45330;51.634;5.562;2022-12-18T10:35:57;31.47;;;14.70;;
59512;SDS011;45330;51.634;5.562;2022-12-18T10:40:56;29.23;;;15.30;;
59512;SDS011;45330;51.634;5.562;2022-12-18T10:43:36;29.55;;;14.95;;
59512;SDS011;45330;51.634;5.562;2022-12-18T10:48:36;30.58;;;15.50;;
59512;SDS011;45330;51.634;5.562;2022-12-18T10:51:04;30.40;;;15.13;;
59512;SDS011;45330;51.634;5.562;2022-12-18T10:53:31;31.10;;;15.25;;
59512;SDS011;45330;51.634;5.562;2022-12-18T10:55:59;32.72;;;15.43;;
59512;SDS011;45330;51.634;5.562;2022-12-18T10:58:26;30.67;;;16.08;;
59512;SDS011;45330;51.634;5.562;2022-12-18T11:01:04;31.75;;;15.70;;
59512;SDS011;45330;51.634;5.562;2022-12-18T11:06:03;30.40;;;15.57;;
59512;SDS011;45330;51.634;5.562;2022-12-18T11:08:37;29.88;;;15.48;;
59512;SDS011;45330;51.634;5.562;2022-12-18T11:11:04;30.10;;;15.10;;
59512;SDS011;45330;51.634;5.562;2022-12-18T11:13:39;31.02;;;15.52;;
59512;SDS011;45330;51.634;5.562;2022-12-18T11:16:05;30.33;;;15.02;;
59512;SDS011;45330;51.634;5.562;2022-12-18T11:18:34;32.75;;;16.13;;
59512;SDS011;45330;51.634;5.562;2022-12-18T11:21:07;28.80;;;15.77;;
59512;SDS011;45330;51.634;5.562;2022-12-18T11:23:35;30.90;;;15.68;;
59512;SDS011;45330;51.634;5.562;2022-12-18T11:26:03;32.25;;;16.38;;
59512;SDS011;45330;51.634;5.562;2022-12-18T11:28:40;32.63;;;16.52;;
59512;SDS011;45330;51.634;5.562;2022-12-18T11:31:21;28.98;;;15.38;;
59512;SDS011;45330;51.634;5.562;2022-12-18T11:33:59;31.15;;;16.13;;
59512;SDS011;45330;51.634;5.562;2022-12-18T11:36:25;30.02;;;15.38;;
59512;SDS011;45330;51.634;5.562;2022-12-18T11:38:57;28.40;;;15.07;;
59512;SDS011;45330;51.634;5.562;2022-12-18T11:41:33;29.67;;;15.63;;
59512;SDS011;45330;51.634;5.562;2022-12-18T11:44:27;32.15;;;15.15;;
59512;SDS011;45330;51.634;5.562;2022-12-18T11:47:03;28.83;;;14.52;;
59512;SDS011;45330;51.634;5.562;2022-12-18T11:49:51;30.27;;;14.50;;
59512;SDS011;45330;51.634;5.562;2022-12-18T11:52:24;32.03;;;14.55;;
59512;SDS011;45330;51.634;5.562;2022-12-18T11:54:58;28.27;;;14.07;;
59512;SDS011;45330;51.634;5.562;2022-12-18T12:00:21;30.63;;;14.63;;
59512;SDS011;45330;51.634;5.562;2022-12-18T12:11:10;29.45;;;14.38;;
59512;SDS011;45330;51.634;5.562;2022-12-18T12:17:03;28.02;;;13.80;;
59512;SDS011;45330;51.634;5.562;2022-12-18T12:19:57;28.63;;;13.75;;
59512;SDS011;45330;51.634;5.562;2022-12-18T12:22:35;26.60;;;11.95;;
59512;SDS011;45330;51.634;5.562;2022-12-18T12:25:22;28.48;;;14.10;;
59512;SDS011;45330;51.634;5.562;2022-12-18T12:31:05;30.08;;;15.07;;
59512;SDS011;45330;51.634;5.562;2022-12-18T12:39:39;30.40;;;15.02;;
59512;SDS011;45330;51.634;5.562;2022-12-18T12:42:15;28.63;;;14.60;;
59512;SDS011;45330;51.634;5.562;2022-12-18T12:45:16;30.52;;;15.80;;
59512;SDS011;45330;51.634;5.562;2022-12-18T12:47:47;31.58;;;16.13;;
59512;SDS011;45330;51.634;5.562;2022-12-18T12:50:16;28.23;;;14.10;;
59512;SDS011;45330;51.634;5.562;2022-12-18T12:52:45;29.60;;;14.38;;
59512;SDS011;45330;51.634;5.562;2022-12-18T12:55:16;30.17;;;14.93;;
59512;SDS011;45330;51.634;5.562;2022-12-18T13:00:16;28.42;;;13.52;;
59512;SDS011;45330;51.634;5.562;2022-12-18T13:02:58;30.00;;;14.90;;
59512;SDS011;45330;51.634;5.562;2022-12-18T13:08:23;30.05;;;16.10;;
59512;SDS011;45330;51.634;5.562;2022-12-18T13:10:59;27.23;;;14.20;;
59512;SDS011;45330;51.634;5.562;2022-12-18T13:13:54;28.23;;;13.68;;
59512;SDS011;45330;51.634;5.562;2022-12-18T13:16:22;28.98;;;13.45;;
59512;SDS011;45330;51.634;5.562;2022-12-18T13:18:50;30.30;;;15.23;;
59512;SDS011;45330;51.634;5.562;2022-12-18T13:21:23;30.10;;;14.70;;
59512;SDS011;45330;51.634;5.562;2022-12-18T13:23:54;32.72;;;16.90;;
59512;SDS011;45330;51.634;5.562;2022-12-18T13:28:50;29.20;;;12.88;;
59512;SDS011;45330;51.634;5.562;2022-12-18T13:36:46;27.75;;;13.63;;
59512;SDS011;45330;51.634;5.562;2022-12-18T13:41:46;31.17;;;14.32;;
59512;SDS011;45330;51.634;5.562;2022-12-18T13:44:31;31.58;;;14.80;;
59512;SDS011;45330;51.634;5.562;2022-12-18T13:47:01;29.45;;;14.55;;
59512;SDS011;45330;51.634;5.562;2022-12-18T13:49:41;29.00;;;13.32;;
59512;SDS011;45330;51.634;5.562;2022-12-18T13:52:21;29.08;;;14.52;;
59512;SDS011;45330;51.634;5.562;2022-12-18T13:54:59;31.17;;;14.27;;
59512;SDS011;45330;51.634;5.562;2022-12-18T13:57:36;29.08;;;13.57;;
59512;SDS011;45330;51.634;5.562;2022-12-18T14:02:44;29.25;;;13.00;;
59512;SDS011;45330;51.634;5.562;2022-12-18T14:05:30;30.80;;;15.02;;
59512;SDS011;45330;51.634;5.562;2022-12-18T14:08:01;30.83;;;14.15;;
59512;SDS011;45330;51.634;5.562;2022-12-18T14:10:30;30.45;;;14.98;;
59512;SDS011;45330;51.634;5.562;2022-12-18T14:12:57;28.40;;;14.65;;
59512;SDS011;45330;51.634;5.562;2022-12-18T14:21:00;27.92;;;14.35;;
59512;SDS011;45330;51.634;5.562;2022-12-18T14:23:35;28.48;;;14.68;;
59512;SDS011;45330;51.634;5.562;2022-12-18T14:26:01;32.60;;;15.63;;
59512;SDS011;45330;51.634;5.562;2022-12-18T14:28:28;32.15;;;14.75;;
59512;SDS011;45330;51.634;5.562;2022-12-18T14:30:54;30.38;;;14.63;;
59512;SDS011;45330;51.634;5.562;2022-12-18T14:33:24;31.30;;;15.13;;
59512;SDS011;45330;51.634;5.562;2022-12-18T14:35:58;29.48;;;14.75;;
59512;SDS011;45330;51.634;5.562;2022-12-18T14:43:26;30.80;;;17.08;;
59512;SDS011;45330;51.634;5.562;2022-12-18T14:45:53;32.33;;;15.98;;
59512;SDS011;45330;51.634;5.562;2022-12-18T14:48:41;28.73;;;15.77;;
59512;SDS011;45330;51.634;5.562;2022-12-18T14:53:42;29.50;;;14.73;;
59512;SDS011;45330;51.634;5.562;2022-12-18T14:56:17;30.55;;;15.38;;
59512;SDS011;45330;51.634;5.562;2022-12-18T14:58:59;31.27;;;15.68;;
59512;SDS011;45330;51.634;5.562;2022-12-18T15:04:04;32.40;;;15.73;;
59512;SDS011;45330;51.634;5.562;2022-12-18T15:06:48;29.52;;;15.77;;
59512;SDS011;45330;51.634;5.562;2022-12-18T15:09:23;28.08;;;13.02;;
59512;SDS011;45330;51.634;5.562;2022-12-18T15:11:54;31.15;;;16.08;;
59512;SDS011;45330;51.634;5.562;2022-12-18T15:14:30;30.83;;;15.45;;
59512;SDS011;45330;51.634;5.562;2022-12-18T15:17:00;31.55;;;15.82;;
59512;SDS011;45330;51.634;5.562;2022-12-18T15:19:38;28.08;;;14.55;;
59512;SDS011;45330;51.634;5.562;2022-12-18T15:22:14;30.15;;;15.15;;
59512;SDS011;45330;51.634;5.562;2022-12-18T15:24:42;30.42;;;14.00;;
59512;SDS011;45330;51.634;5.562;2022-12-18T15:27:19;32.67;;;16.17;;
59512;SDS011;45330;51.634;5.562;2022-12-18T15:29:59;30.45;;;14.88;;
59512;SDS011;45330;51.634;5.562;2022-12-18T15:32:28;30.75;;;14.38;;
59512;SDS011;45330;51.634;5.562;2022-12-18T15:37:34;30.42;;;14.90;;
59512;SDS011;45330;51.634;5.562;2022-12-18T15:39:59;29.38;;;14.77;;
59512;SDS011;45330;51.634;5.562;2022-12-18T15:42:25;32.92;;;16.30;;
59512;SDS011;45330;51.634;5.562;2022-12-18T15:45:12;33.42;;;16.70;;
59512;SDS011;45330;51.634;5.562;2022-12-18T15:47:38;29.15;;;14.65;;
59512;SDS011;45330;51.634;5.562;2022-12-18T15:50:04;31.83;;;15.95;;
59512;SDS011;45330;51.634;5.562;2022-12-18T15:52:32;29.25;;;15.98;;
59512;SDS011;45330;51.634;5.562;2022-12-18T15:55:15;30.65;;;15.80;;
59512;SDS011;45330;51.634;5.562;2022-12-18T15:58:01;29.10;;;15.88;;
59512;SDS011;45330;51.634;5.562;2022-12-18T16:00:27;30.50;;;15.93;;
59512;SDS011;45330;51.634;5.562;2022-12-18T16:02:53;31.02;;;15.43;;
59512;SDS011;45330;51.634;5.562;2022-12-18T16:05:24;30.35;;;14.43;;